createdAt,value
2019-05-03T00:02:42.552Z,4.87
2019-05-03T00:05:34.643Z,4.92
2019-05-03T00:08:08.809Z,5.15
2019-05-03T00:10:39.890Z,5.00
2019-05-03T00:13:12.308Z,4.67
2019-05-03T00:16:02.708Z,4.78
2019-05-03T00:18:33.332Z,5.40
2019-05-03T00:21:03.722Z,5.00
2019-05-03T00:23:34.162Z,5.87
2019-05-03T00:26:04.514Z,6.00
2019-05-03T00:28:34.853Z,5.40
2019-05-03T00:31:05.253Z,5.33
2019-05-03T00:33:37.381Z,6.72
2019-05-03T00:36:22.995Z,5.78
2019-05-03T00:38:56.578Z,6.83
2019-05-03T00:41:26.957Z,6.28
2019-05-03T00:43:57.345Z,6.90
2019-05-03T00:46:27.703Z,6.75
2019-05-03T00:48:58.104Z,6.50
2019-05-03T00:51:28.483Z,6.67
2019-05-03T00:53:58.835Z,7.03
2019-05-03T00:56:29.197Z,6.40
2019-05-03T00:59:02.051Z,7.05
2019-05-03T01:01:32.116Z,7.00
2019-05-03T01:04:02.705Z,7.28
2019-05-03T01:06:33.060Z,7.55
2019-05-03T01:09:04.511Z,7.05
2019-05-03T01:11:34.912Z,6.58
2019-05-03T01:14:05.988Z,7.75
2019-05-03T01:16:36.340Z,8.03
2019-05-03T01:19:06.725Z,6.22
2019-05-03T01:21:37.071Z,7.05
2019-05-03T01:24:07.689Z,7.72
2019-05-03T01:26:38.109Z,7.50
2019-05-03T01:29:08.465Z,7.37
2019-05-03T01:31:38.843Z,8.70
2019-05-03T01:34:09.217Z,6.53
2019-05-03T01:36:39.589Z,8.48
2019-05-03T01:39:09.921Z,7.45
2019-05-03T01:41:41.686Z,7.95
2019-05-03T01:44:12.516Z,7.15
2019-05-03T01:46:42.939Z,6.53
2019-05-03T01:49:22.893Z,7.15
2019-05-03T01:52:03.758Z,8.05
2019-05-03T01:54:34.116Z,7.42
2019-05-03T01:57:04.753Z,7.05
2019-05-03T01:59:35.130Z,6.95
2019-05-03T02:02:24.439Z,7.03
2019-05-03T02:05:13.544Z,6.15
2019-05-03T02:07:43.898Z,7.60
2019-05-03T02:10:14.362Z,6.50
2019-05-03T02:12:44.723Z,7.15
2019-05-03T02:15:15.086Z,5.40
2019-05-03T02:17:45.523Z,6.40
2019-05-03T02:20:15.923Z,7.17
2019-05-03T02:22:46.263Z,6.28
2019-05-03T02:25:16.622Z,8.50
2019-05-03T02:27:46.969Z,6.53
2019-05-03T02:30:17.315Z,4.65
2019-05-03T02:32:47.726Z,5.92
2019-05-03T02:35:18.181Z,5.90
2019-05-03T02:37:53.310Z,7.83
2019-05-03T02:40:25.242Z,6.92
2019-05-03T02:43:26.018Z,8.78
2019-05-03T02:46:16.475Z,8.48
2019-05-03T02:48:55.676Z,7.95
2019-05-03T02:51:26.498Z,8.20
2019-05-03T02:53:57.365Z,8.30
2019-05-03T02:56:27.996Z,9.20
2019-05-03T02:58:59.257Z,8.15
2019-05-03T03:01:30.234Z,8.95
2019-05-03T03:04:00.896Z,9.30
2019-05-03T03:06:36.456Z,10.63
2019-05-03T03:09:07.367Z,9.45
2019-05-03T03:11:40.187Z,10.00
2019-05-03T03:14:16.459Z,9.33
2019-05-03T03:16:51.191Z,8.80
2019-05-03T03:19:26.225Z,9.48
2019-05-03T03:22:00.325Z,8.95
2019-05-03T03:24:33.004Z,8.85
2019-05-03T03:27:07.300Z,9.48
2019-05-03T03:29:39.875Z,9.05
2019-05-03T03:32:23.079Z,8.80
2019-05-03T03:35:13.013Z,9.50
2019-05-03T03:37:46.213Z,8.43
2019-05-03T03:40:17.372Z,9.35
2019-05-03T03:42:49.655Z,10.40
2019-05-03T03:45:20.047Z,7.80
2019-05-03T03:47:56.202Z,8.63
2019-05-03T03:50:28.967Z,8.78
2019-05-03T03:53:01.823Z,9.43
2019-05-03T03:55:35.713Z,8.53
2019-05-03T03:58:06.789Z,10.80
2019-05-03T04:00:37.196Z,9.40
2019-05-03T04:03:07.598Z,9.95
2019-05-03T04:05:37.975Z,9.25
2019-05-03T04:08:27.431Z,9.13
2019-05-03T04:10:57.818Z,8.70
2019-05-03T04:13:28.150Z,9.10
2019-05-03T04:16:12.944Z,9.93
2019-05-03T04:18:50.128Z,10.08
2019-05-03T04:21:20.496Z,8.63
2019-05-03T04:23:51.389Z,10.15
2019-05-03T04:26:22.287Z,9.75
2019-05-03T04:28:56.097Z,10.90
2019-05-03T04:31:26.337Z,11.12
2019-05-03T04:33:57.281Z,10.00
2019-05-03T04:36:27.611Z,9.30
2019-05-03T04:38:58.054Z,9.55
2019-05-03T04:41:28.429Z,10.30
2019-05-03T04:43:58.766Z,10.20
2019-05-03T04:46:29.113Z,10.15
2019-05-03T04:48:59.518Z,8.65
2019-05-03T04:51:29.875Z,9.83
2019-05-03T04:54:17.590Z,10.68
2019-05-03T04:56:47.967Z,10.65
2019-05-03T04:59:18.345Z,10.93
2019-05-03T05:01:48.699Z,10.60
2019-05-03T05:04:19.044Z,10.80
2019-05-03T05:06:50.974Z,9.13
2019-05-03T05:09:21.339Z,10.15
2019-05-03T05:11:51.689Z,10.98
2019-05-03T05:14:22.002Z,10.20
2019-05-03T05:16:55.472Z,10.45
2019-05-03T05:19:33.155Z,10.43
2019-05-03T05:22:07.529Z,9.78
2019-05-03T05:24:37.847Z,10.08
2019-05-03T05:27:29.914Z,11.00
2019-05-03T05:30:01.775Z,11.28
2019-05-03T05:32:32.093Z,10.08
2019-05-03T05:35:02.443Z,10.93
2019-05-03T05:37:32.764Z,10.20
2019-05-03T05:40:05.205Z,9.95
2019-05-03T05:42:35.186Z,10.75
2019-05-03T05:45:06.209Z,10.88
2019-05-03T05:48:05.029Z,10.32
2019-05-03T05:50:37.247Z,10.13
2019-05-03T05:53:07.606Z,10.93
2019-05-03T05:55:56.830Z,9.48
2019-05-03T05:58:46.089Z,9.80
2019-05-03T06:01:21.969Z,11.28
2019-05-03T06:03:52.304Z,10.78
2019-05-03T06:06:30.185Z,12.15
2019-05-03T06:09:19.452Z,10.78
2019-05-03T06:12:27.805Z,11.68
2019-05-03T06:15:01.766Z,11.78
2019-05-03T06:18:03.126Z,10.88
2019-05-03T06:20:45.188Z,10.45
2019-05-03T06:23:21.963Z,10.55
2019-05-03T06:25:54.456Z,9.63
2019-05-03T06:28:35.721Z,8.50
2019-05-03T06:31:22.512Z,9.03
2019-05-03T06:33:52.553Z,8.45
2019-05-03T06:36:24.341Z,8.55
2019-05-03T06:38:55.188Z,8.25
2019-05-03T06:41:25.570Z,9.43
2019-05-03T06:43:55.900Z,9.20
2019-05-03T06:46:46.056Z,8.20
2019-05-03T06:49:16.866Z,8.65
2019-05-03T06:51:49.774Z,7.87
2019-05-03T06:54:20.717Z,9.80
2019-05-03T06:56:51.324Z,9.10
2019-05-03T06:59:45.921Z,7.35
2019-05-03T07:02:37.985Z,7.62
2019-05-03T07:05:15.317Z,8.23
2019-05-03T07:08:05.154Z,6.70
2019-05-03T07:10:39.868Z,6.40
2019-05-03T07:13:10.260Z,7.00
2019-05-03T07:15:40.578Z,7.05
2019-05-03T07:18:10.909Z,7.25
2019-05-03T07:20:48.466Z,6.35
2019-05-03T07:23:19.221Z,4.42
2019-05-03T07:25:49.538Z,4.60
2019-05-03T07:28:19.881Z,2.42
2019-05-03T07:30:50.215Z,2.55
2019-05-03T07:33:28.803Z,2.30
2019-05-03T07:35:59.161Z,2.45
2019-05-03T07:38:29.496Z,2.10
2019-05-03T07:40:59.869Z,1.40
2019-05-03T07:43:30.180Z,1.72
2019-05-03T07:46:00.494Z,1.92
2019-05-03T07:48:30.964Z,1.55
2019-05-03T07:51:01.557Z,1.55
2019-05-03T07:53:31.954Z,2.00
2019-05-03T07:56:12.124Z,2.35
2019-05-03T07:58:46.200Z,1.55
2019-05-03T08:01:25.248Z,1.95
2019-05-03T08:03:55.716Z,2.08
2019-05-03T08:06:26.036Z,1.90
2019-05-03T08:08:56.395Z,3.17
2019-05-03T08:11:26.805Z,3.15
2019-05-03T08:13:57.145Z,3.45
2019-05-03T08:16:27.501Z,2.25
2019-05-03T08:18:57.880Z,2.15
2019-05-03T08:21:28.187Z,2.47
2019-05-03T08:23:58.562Z,3.02
2019-05-03T08:26:28.883Z,1.12
2019-05-03T08:29:12.233Z,1.85
2019-05-03T08:32:00.432Z,1.25
2019-05-03T08:34:39.277Z,0.90
2019-05-03T08:37:18.481Z,1.52
2019-05-03T08:39:48.832Z,0.45
2019-05-03T08:42:25.534Z,1.25
2019-05-03T08:44:55.933Z,0.57
2019-05-03T08:47:26.260Z,1.35
2019-05-03T08:49:56.619Z,1.25
2019-05-03T08:52:26.916Z,0.95
2019-05-03T08:54:57.228Z,1.95
2019-05-03T08:57:27.578Z,1.00
2019-05-03T08:59:57.894Z,1.22
2019-05-03T09:02:28.233Z,0.62
2019-05-03T09:04:58.917Z,0.40
2019-05-03T09:07:29.339Z,0.40
2019-05-03T09:10:24.996Z,0.80
2019-05-03T09:13:29.442Z,0.68
2019-05-03T09:15:59.916Z,0.95
2019-05-03T09:18:30.258Z,1.25
2019-05-03T09:21:00.594Z,2.15
2019-05-03T09:23:30.974Z,0.62
2019-05-03T09:26:01.294Z,0.80
2019-05-03T09:28:31.605Z,1.22
2019-05-03T09:31:01.945Z,1.67
2019-05-03T09:33:32.271Z,1.00
2019-05-03T09:36:02.586Z,1.65
2019-05-03T09:38:34.881Z,0.98
2019-05-03T09:41:05.312Z,0.72
2019-05-03T09:43:35.810Z,0.62
2019-05-03T09:46:06.208Z,1.45
2019-05-03T09:48:36.574Z,2.58
2019-05-03T09:51:06.922Z,1.85
2019-05-03T09:53:45.165Z,2.35
2019-05-03T09:56:15.599Z,1.67
2019-05-03T09:58:46.219Z,2.02
2019-05-03T10:01:16.711Z,3.42
2019-05-03T10:03:47.091Z,1.65
2019-05-03T10:06:17.864Z,3.00
2019-05-03T10:08:48.248Z,2.52
2019-05-03T10:11:18.565Z,2.45
2019-05-03T10:13:49.134Z,1.85
2019-05-03T10:16:21.244Z,1.65
2019-05-03T10:18:51.557Z,1.77
2019-05-03T10:21:25.766Z,1.42
2019-05-03T10:23:56.349Z,1.05
2019-05-03T10:26:27.752Z,1.55
2019-05-03T10:28:58.147Z,1.05
2019-05-03T10:31:35.454Z,1.37
2019-05-03T10:34:06.032Z,1.67
2019-05-03T10:36:36.381Z,2.62
2019-05-03T10:39:07.490Z,2.12
2019-05-03T10:41:38.229Z,2.30
2019-05-03T10:44:08.563Z,2.70
2019-05-03T10:46:39.085Z,3.42
2019-05-03T10:49:09.532Z,2.87
2019-05-03T10:51:45.188Z,2.70
2019-05-03T10:54:16.050Z,2.45
2019-05-03T10:56:57.055Z,1.52
2019-05-03T10:59:27.427Z,1.70
2019-05-03T11:02:19.412Z,1.60
2019-05-03T11:04:49.845Z,1.50
2019-05-03T11:07:20.208Z,2.27
2019-05-03T11:09:52.526Z,1.92
2019-05-03T11:12:22.686Z,0.53
2019-05-03T11:14:52.990Z,0.68
2019-05-03T11:17:25.500Z,0.20
2019-05-03T11:19:55.447Z,0.30
2019-05-03T11:22:25.896Z,0.25
2019-05-03T11:24:56.246Z,0.53
2019-05-03T11:27:36.018Z,0.20
2019-05-03T11:30:09.247Z,0.17
2019-05-03T11:32:45.228Z,0.50
2019-05-03T11:35:24.694Z,0.47
2019-05-03T11:38:05.466Z,0.20
2019-05-03T11:40:35.550Z,0.40
2019-05-03T11:43:05.926Z,0.40
2019-05-03T11:45:36.289Z,0.55
2019-05-03T11:48:06.814Z,0.42
2019-05-03T11:50:37.146Z,0.80
2019-05-03T11:53:07.508Z,0.40
2019-05-03T11:55:38.159Z,0.53
2019-05-03T11:58:19.179Z,0.40
2019-05-03T12:01:15.853Z,0.40
2019-05-03T12:03:45.125Z,0.30
2019-05-03T12:06:15.794Z,0.62
2019-05-03T12:08:46.296Z,0.75
2019-05-03T12:11:16.641Z,0.30
2019-05-03T12:13:46.965Z,0.42
2019-05-03T12:16:25.691Z,0.50
2019-05-03T12:18:53.645Z,0.53
2019-05-03T12:21:22.405Z,1.37
2019-05-03T12:23:56.145Z,1.37
2019-05-03T12:26:34.335Z,0.55
2019-05-03T12:28:57.687Z,1.10
2019-05-03T12:31:36.610Z,0.85
2019-05-03T12:34:00.178Z,1.50
2019-05-03T12:36:30.649Z,0.68
2019-05-03T12:39:00.978Z,1.25
2019-05-03T12:41:31.286Z,0.50
2019-05-03T12:44:01.702Z,0.45
2019-05-03T12:46:32.031Z,0.60
2019-05-03T12:49:02.373Z,0.55
2019-05-03T12:51:34.474Z,0.60
2019-05-03T12:54:04.956Z,0.98
2019-05-03T12:56:35.928Z,0.82
2019-05-03T12:59:12.424Z,0.82
2019-05-03T13:02:04.870Z,1.62
2019-05-03T13:04:37.002Z,2.10
2019-05-03T13:07:16.718Z,0.68
2019-05-03T13:09:47.103Z,1.10
2019-05-03T13:12:19.849Z,0.98
2019-05-03T13:14:50.174Z,0.60
2019-05-03T13:17:36.241Z,0.98
2019-05-03T13:20:10.534Z,1.47
2019-05-03T13:22:40.940Z,1.55
2019-05-03T13:25:15.517Z,2.20
2019-05-03T13:27:46.418Z,1.55
2019-05-03T13:30:16.910Z,1.32
2019-05-03T13:32:47.242Z,2.15
2019-05-03T13:35:17.680Z,1.77
2019-05-03T13:37:48.646Z,2.10
2019-05-03T13:40:19.038Z,2.20
2019-05-03T13:42:57.121Z,1.52
2019-05-03T13:45:21.635Z,2.00
2019-05-03T13:47:51.994Z,1.77
2019-05-03T13:50:24.427Z,1.98
2019-05-03T13:52:55.922Z,1.72
2019-05-03T13:55:26.433Z,2.02
2019-05-03T13:57:56.804Z,1.95
2019-05-03T14:00:27.129Z,2.50
2019-05-03T14:02:57.485Z,2.02
2019-05-03T14:05:27.805Z,2.35
2019-05-03T14:07:58.144Z,2.92
2019-05-03T14:10:28.488Z,1.92
2019-05-03T14:12:58.864Z,2.08
2019-05-03T14:15:29.220Z,3.27
2019-05-03T14:17:59.602Z,2.72
2019-05-03T14:20:44.254Z,2.90
2019-05-03T14:23:14.953Z,2.27
2019-05-03T14:25:45.988Z,1.75
2019-05-03T14:28:16.307Z,1.47
2019-05-03T14:30:46.880Z,1.45
2019-05-03T14:33:17.192Z,1.72
2019-05-03T14:35:47.563Z,1.95
2019-05-03T14:38:17.911Z,1.65
2019-05-03T14:40:48.210Z,1.85
2019-05-03T14:43:18.555Z,2.00
2019-05-03T14:45:48.879Z,2.20
2019-05-03T14:48:19.211Z,1.12
2019-05-03T14:50:49.720Z,2.30
2019-05-03T14:53:20.584Z,1.75
2019-05-03T14:55:56.771Z,1.85
2019-05-03T14:59:01.065Z,1.62
2019-05-03T15:01:37.823Z,2.15
2019-05-03T15:04:08.503Z,1.50
2019-05-03T15:06:38.860Z,1.75
2019-05-03T15:09:09.529Z,1.77
2019-05-03T15:11:39.915Z,2.40
2019-05-03T15:14:10.379Z,2.30
2019-05-03T15:16:40.759Z,1.50
2019-05-03T15:19:11.418Z,2.42
2019-05-03T15:21:41.760Z,2.00
2019-05-03T15:24:12.138Z,1.55
2019-05-03T15:26:44.622Z,1.42
2019-05-03T15:29:15.573Z,2.08
2019-05-03T15:31:46.357Z,1.98
2019-05-03T15:34:16.716Z,2.25
2019-05-03T15:36:47.091Z,2.00
2019-05-03T15:39:17.463Z,1.57
2019-05-03T15:41:47.811Z,2.33
2019-05-03T15:44:25.341Z,2.00
2019-05-03T15:47:09.556Z,2.55
2019-05-03T15:49:38.664Z,2.62
2019-05-03T15:52:08.977Z,2.52
2019-05-03T15:54:39.348Z,2.50
2019-05-03T15:57:09.698Z,2.80
2019-05-03T15:59:39.998Z,2.55
2019-05-03T16:02:10.351Z,1.65
2019-05-03T16:04:40.657Z,1.75
2019-05-03T16:07:10.993Z,1.37
2019-05-03T16:09:41.324Z,1.12
2019-05-03T16:12:11.631Z,2.20
2019-05-03T16:14:41.958Z,2.58
2019-05-03T16:17:12.400Z,2.15
2019-05-03T16:19:47.396Z,2.67
2019-05-03T16:22:14.837Z,2.25
2019-05-03T16:24:47.131Z,2.08
2019-05-03T16:27:25.640Z,2.08
2019-05-03T16:29:56.006Z,2.45
2019-05-03T16:32:26.344Z,2.05
2019-05-03T16:34:56.667Z,2.15
2019-05-03T16:37:27.040Z,2.22
2019-05-03T16:39:57.917Z,3.02
2019-05-03T16:42:28.376Z,2.12
2019-05-03T16:44:58.759Z,2.80
2019-05-03T16:47:29.179Z,2.72
2019-05-03T16:49:59.583Z,2.75
2019-05-03T16:52:29.954Z,2.22
2019-05-03T16:55:00.308Z,3.08
2019-05-03T16:57:30.700Z,2.37
2019-05-03T17:00:01.060Z,2.62
2019-05-03T17:02:31.443Z,3.42
2019-05-03T17:05:14.280Z,3.12
2019-05-03T17:07:53.384Z,2.77
2019-05-03T17:10:36.668Z,3.37
2019-05-03T17:13:07.055Z,4.10
2019-05-03T17:15:37.411Z,3.52
2019-05-03T17:18:08.394Z,3.52
2019-05-03T17:20:38.872Z,3.02
2019-05-03T17:23:09.205Z,3.50
2019-05-03T17:25:39.791Z,3.72
2019-05-03T17:28:10.243Z,2.52
2019-05-03T17:30:40.933Z,3.20
2019-05-03T17:33:11.301Z,3.25
2019-05-03T17:35:41.796Z,2.62
2019-05-03T17:38:12.516Z,2.83
2019-05-03T17:40:54.977Z,2.98
2019-05-03T17:43:39.054Z,3.35
2019-05-03T17:46:09.851Z,3.80
2019-05-03T17:48:40.228Z,3.02
2019-05-03T17:51:14.989Z,4.58
2019-05-03T17:54:06.000Z,3.98
2019-05-03T17:56:58.283Z,3.02
2019-05-03T17:59:35.053Z,3.27
2019-05-03T18:02:24.489Z,3.42
2019-05-03T18:05:16.622Z,3.50
2019-05-03T18:08:17.929Z,3.08
2019-05-03T18:10:55.145Z,3.22
2019-05-03T18:13:25.899Z,4.45
2019-05-03T18:15:57.156Z,3.22
2019-05-03T18:18:27.698Z,4.08
2019-05-03T18:20:58.522Z,4.20
2019-05-03T18:23:28.983Z,3.70
2019-05-03T18:25:59.424Z,3.35
2019-05-03T18:28:29.882Z,3.37
2019-05-03T18:31:00.485Z,4.10
2019-05-03T18:33:30.944Z,4.22
2019-05-03T18:36:01.293Z,4.37
2019-05-03T18:38:39.666Z,4.47
2019-05-03T18:41:12.418Z,4.55
2019-05-03T18:43:54.483Z,3.92
2019-05-03T18:46:31.962Z,3.62
2019-05-03T18:49:04.372Z,4.45
2019-05-03T18:51:34.564Z,4.78
2019-05-03T18:54:07.246Z,4.60
2019-05-03T18:56:37.407Z,3.47
2019-05-03T18:59:07.886Z,5.30
2019-05-03T19:01:38.241Z,4.08
2019-05-03T19:04:14.735Z,4.10
2019-05-03T19:06:45.308Z,4.55
2019-05-03T19:09:34.645Z,3.98
2019-05-03T19:12:33.021Z,4.78
2019-05-03T19:15:05.304Z,5.22
2019-05-03T19:17:54.772Z,5.62
2019-05-03T19:20:25.321Z,6.20
2019-05-03T19:22:55.679Z,5.00
2019-05-03T19:25:26.027Z,5.45
2019-05-03T19:27:56.384Z,5.53
2019-05-03T19:30:27.279Z,6.17
2019-05-03T19:32:58.013Z,6.78
2019-05-03T19:35:28.574Z,6.15
2019-05-03T19:37:58.925Z,6.15
2019-05-03T19:40:29.257Z,5.78
2019-05-03T19:43:02.535Z,6.97
2019-05-03T19:45:31.836Z,7.28
2019-05-03T19:48:02.233Z,7.28
2019-05-03T19:50:32.613Z,8.58
2019-05-03T19:53:07.896Z,8.15
2019-05-03T19:55:38.264Z,8.35
2019-05-03T19:58:08.587Z,8.40
2019-05-03T20:00:57.471Z,8.45
2019-05-03T20:03:45.513Z,7.25
2019-05-03T20:06:31.996Z,9.95
2019-05-03T20:09:09.357Z,7.55
2019-05-03T20:11:39.690Z,8.45
2019-05-03T20:14:10.032Z,8.88
2019-05-03T20:16:40.488Z,7.35
2019-05-03T20:19:18.940Z,8.78
2019-05-03T20:21:43.200Z,9.40
2019-05-03T20:24:14.902Z,8.80
2019-05-03T20:26:45.421Z,8.58
2019-05-03T20:29:15.832Z,7.78
2019-05-03T20:31:46.141Z,7.50
2019-05-03T20:34:16.484Z,6.95
2019-05-03T20:36:46.838Z,6.75
2019-05-03T20:39:17.318Z,5.92
2019-05-03T20:41:47.680Z,5.35
2019-05-03T20:44:27.584Z,5.47
2019-05-03T20:47:11.723Z,5.70
2019-05-03T20:49:42.105Z,6.37
2019-05-03T20:52:12.811Z,5.42
2019-05-03T20:54:44.787Z,4.62
2019-05-03T20:57:15.259Z,4.10
2019-05-03T20:59:49.400Z,3.08
2019-05-03T21:02:17.621Z,3.95
2019-05-03T21:04:47.942Z,3.45
2019-05-03T21:07:18.480Z,4.45
2019-05-03T21:09:48.833Z,4.00
2019-05-03T21:12:19.177Z,5.28
2019-05-03T21:14:49.515Z,5.60
2019-05-03T21:17:41.777Z,4.25
2019-05-03T21:20:36.991Z,5.00
2019-05-03T21:23:09.104Z,4.75
2019-05-03T21:26:05.577Z,4.33
2019-05-03T21:28:16.196Z,5.35
2019-05-03T21:30:46.664Z,5.72
2019-05-03T21:33:17.008Z,4.70
2019-05-03T21:35:47.376Z,5.30
2019-05-03T21:38:17.674Z,4.50
2019-05-03T21:40:48.432Z,4.97
2019-05-03T21:43:18.841Z,5.22
2019-05-03T21:45:54.431Z,4.90
2019-05-03T21:48:28.932Z,5.83
2019-05-03T21:50:59.243Z,6.08
2019-05-03T21:53:29.652Z,5.50
2019-05-03T21:56:00.003Z,6.28
2019-05-03T21:58:30.344Z,4.90
2019-05-03T22:01:05.135Z,3.60
2019-05-03T22:03:35.602Z,3.22
2019-05-03T22:06:05.852Z,2.20
2019-05-03T22:08:36.310Z,1.10
2019-05-03T22:11:06.683Z,0.80
2019-05-03T22:13:38.043Z,0.57
2019-05-03T22:16:15.526Z,0.40
2019-05-03T22:18:46.063Z,0.47
2019-05-03T22:21:47.511Z,0.20
2019-05-03T22:24:25.883Z,0.30
2019-05-03T22:27:16.944Z,0.30
2019-05-03T22:29:47.319Z,0.30
2019-05-03T22:32:17.635Z,0.30
2019-05-03T22:34:47.969Z,0.40
2019-05-03T22:37:18.276Z,0.20
2019-05-03T22:39:48.643Z,0.20
2019-05-03T22:42:19.030Z,0.20
2019-05-03T22:44:49.382Z,0.23
2019-05-03T22:47:19.733Z,0.30
2019-05-03T22:49:50.066Z,0.40
2019-05-03T22:52:20.384Z,0.20
2019-05-03T22:54:50.801Z,0.68
2019-05-03T22:57:21.211Z,1.12
2019-05-03T22:59:51.502Z,1.32
2019-05-03T23:02:21.847Z,2.12
2019-05-03T23:04:52.551Z,2.62
2019-05-03T23:07:24.842Z,1.92
2019-05-03T23:09:54.881Z,1.67
2019-05-03T23:12:25.187Z,1.00
2019-05-03T23:14:55.456Z,1.45
2019-05-03T23:17:25.822Z,1.70
2019-05-03T23:20:05.263Z,1.25
2019-05-03T23:22:35.673Z,1.22
2019-05-03T23:25:06.544Z,1.45
2019-05-03T23:27:36.853Z,0.62
2019-05-03T23:30:07.541Z,0.80
2019-05-03T23:32:37.892Z,0.47
2019-05-03T23:35:08.223Z,1.10
2019-05-03T23:37:38.627Z,1.02
2019-05-03T23:40:09.174Z,0.85
2019-05-03T23:42:39.601Z,0.33
2019-05-03T23:45:10.196Z,0.40
2019-05-03T23:47:45.219Z,0.40
2019-05-03T23:50:20.706Z,0.50
2019-05-03T23:52:51.168Z,0.62
2019-05-03T23:55:45.794Z,0.42
2019-05-03T23:58:16.146Z,0.68
